Time;durP1;ratioP1;P1;durP2;ratioP2;P2;SDS_P1;SDS_P2;PMS_P1;PMS_P2;Temp;Humidity;BMP_temperature;BMP_pressure;BME280_temperature;BME280_humidity;BME280_pressure;Samples;Min_cycle;Max_cycle;Signal;HPM_P1;HPM_P2
2022/12/08 00:02:12;;;;;;;23.50;10.90;;;;;;;;;;5071997;28;20089;-61
2022/12/08 00:09:20;;;;;;;21.67;11.30;;;;;;;;;;5069205;28;20384;-61
2022/12/08 00:10:08;;;;;;;24.85;10.68;;;;;;;;;;5069837;28;20094;-62
2022/12/08 00:12:33;;;;;;;20.40;11.43;;;;;;;;;;5070019;28;20064;-61
2022/12/08 00:14:59;;;;;;;25.08;11.65;;;;;;;;;;5051616;28;20437;-61
2022/12/08 00:17:24;;;;;;;19.55;11.25;;;;;;;;;;5071296;28;20025;-61
2022/12/08 00:19:49;;;;;;;23.83;12.55;;;;;;;;;;5071552;28;20040;-61
2022/12/08 00:22:15;;;;;;;21.33;10.98;;;;;;;;;;5052078;28;20539;-61
2022/12/08 00:24:43;;;;;;;23.33;12.98;;;;;;;;;;5069826;28;20036;-62
2022/12/08 00:27:11;;;;;;;20.75;11.88;;;;;;;;;;5068650;28;20024;-61
2022/12/08 00:29:36;;;;;;;24.08;11.75;;;;;;;;;;5070159;28;20055;-61
2022/12/08 00:32:02;;;;;;;22.65;12.73;;;;;;;;;;5070416;28;20068;-61
2022/12/08 00:34:27;;;;;;;23.98;13.95;;;;;;;;;;5072458;28;20028;-61
2022/12/08 00:36:53;;;;;;;23.60;13.95;;;;;;;;;;5068387;28;20029;-61
2022/12/08 00:39:18;;;;;;;28.35;16.02;;;;;;;;;;5071222;28;20051;-61
2022/12/08 00:44:27;;;;;;;21.85;12.07;;;;;;;;;;5071880;28;20466;-60
2022/12/08 00:46:53;;;;;;;31.83;17.02;;;;;;;;;;5068547;28;20032;-61
2022/12/08 00:49:18;;;;;;;34.47;18.25;;;;;;;;;;5071285;28;20031;-61
2022/12/08 00:51:44;;;;;;;30.27;17.35;;;;;;;;;;5068789;28;20033;-61
2022/12/08 00:54:10;;;;;;;33.15;17.08;;;;;;;;;;5071226;28;20393;-60
2022/12/08 00:56:36;;;;;;;33.35;16.63;;;;;;;;;;5068242;28;20120;-60
2022/12/08 00:59:03;;;;;;;30.23;16.55;;;;;;;;;;5071031;28;20082;-60
2022/12/08 01:01:28;;;;;;;31.20;16.98;;;;;;;;;;5070167;28;20077;-60
2022/12/08 01:03:54;;;;;;;33.95;19.02;;;;;;;;;;5069872;28;20438;-60
2022/12/08 01:06:19;;;;;;;33.08;17.90;;;;;;;;;;5060792;28;20166;-60
2022/12/08 01:08:44;;;;;;;24.83;13.98;;;;;;;;;;5067576;28;20377;-61
2022/12/08 01:11:17;;;;;;;34.45;18.10;;;;;;;;;;5067336;28;20032;-60
2022/12/08 01:13:43;;;;;;;36.83;19.15;;;;;;;;;;5071777;28;20527;-60
2022/12/08 01:16:09;;;;;;;33.13;17.98;;;;;;;;;;5070891;28;20158;-60
2022/12/08 01:18:35;;;;;;;32.35;17.27;;;;;;;;;;5060233;28;20201;-61
2022/12/08 01:21:07;;;;;;;31.52;19.02;;;;;;;;;;5064471;28;20074;-59
2022/12/08 01:23:33;;;;;;;31.15;16.65;;;;;;;;;;5069475;28;20024;-60
2022/12/08 01:26:07;;;;;;;37.90;20.15;;;;;;;;;;5068831;28;20532;-60
2022/12/08 01:28:33;;;;;;;33.80;18.67;;;;;;;;;;5069173;28;20047;-60
2022/12/08 01:31:00;;;;;;;35.45;17.77;;;;;;;;;;5067785;28;20365;-59
2022/12/08 01:33:26;;;;;;;35.03;18.35;;;;;;;;;;5071563;28;20479;-59
2022/12/08 01:35:54;;;;;;;34.45;18.42;;;;;;;;;;5066700;28;20158;-60
2022/12/08 01:38:20;;;;;;;28.88;16.23;;;;;;;;;;5070608;28;20024;-60
2022/12/08 01:40:46;;;;;;;30.38;15.27;;;;;;;;;;5065406;28;20117;-60
2022/12/08 01:43:16;;;;;;;31.30;16.63;;;;;;;;;;5067861;28;20116;-59
2022/12/08 01:45:42;;;;;;;33.80;17.40;;;;;;;;;;5068226;28;20074;-60
2022/12/08 01:48:13;;;;;;;27.35;13.95;;;;;;;;;;5070779;28;20036;-59
2022/12/08 01:50:40;;;;;;;;;;;;;;;;;;5063508;28;20029;-60
2022/12/08 01:53:18;;;;;;;31.02;15.88;;;;;;;;;;5061470;28;19958;-59
2022/12/08 01:55:53;;;;;;;30.15;16.77;;;;;;;;;;5066242;28;20523;-60
2022/12/08 01:58:24;;;;;;;31.20;17.23;;;;;;;;;;5068731;28;20043;-60
2022/12/08 02:00:50;;;;;;;29.15;16.50;;;;;;;;;;5066529;28;20028;-59
2022/12/08 02:03:39;;;;;;;33.05;17.13;;;;;;;;;;5069769;28;20032;-60
2022/12/08 02:06:05;;;;;;;27.15;15.27;;;;;;;;;;5067980;28;20052;-59
2022/12/08 02:08:31;;;;;;;31.58;17.35;;;;;;;;;;5050560;28;20028;-59
2022/12/08 02:10:56;;;;;;;33.10;17.75;;;;;;;;;;5067874;28;20040;-60
2022/12/08 02:13:23;;;;;;;33.80;18.75;;;;;;;;;;5069143;28;20533;-60
2022/12/08 02:16:13;;;;;;;37.55;20.30;;;;;;;;;;5069912;28;20116;-61
2022/12/08 02:18:56;;;;;;;31.98;18.25;;;;;;;;;;5067784;28;20469;-60
2022/12/08 02:21:34;;;;;;;40.70;19.85;;;;;;;;;;5069831;28;20047;-59
2022/12/08 02:24:26;;;;;;;38.33;19.77;;;;;;;;;;5068254;28;20542;-60
2022/12/08 02:27:22;;;;;;;46.08;21.60;;;;;;;;;;5069120;28;20130;-60
2022/12/08 02:30:00;;;;;;;37.42;18.80;;;;;;;;;;5068019;28;20093;-59
2022/12/08 02:33:02;;;;;;;43.95;21.55;;;;;;;;;;5066895;28;20089;-60
2022/12/08 02:35:44;;;;;;;27.30;14.43;;;;;;;;;;5069864;28;20036;-60
2022/12/08 02:38:12;;;;;;;47.03;22.73;;;;;;;;;;5070212;28;20032;-60
2022/12/08 02:41:05;;;;;;;47.78;21.13;;;;;;;;;;5069275;28;20029;-60
2022/12/08 02:43:44;;;;;;;43.25;22.35;;;;;;;;;;5069223;28;20036;-59
2022/12/08 02:46:15;;;;;;;43.65;22.85;;;;;;;;;;5068736;28;20381;-60
2022/12/08 02:48:41;;;;;;;38.05;20.15;;;;;;;;;;5069472;28;20049;-59
2022/12/08 02:51:07;;;;;;;44.85;21.60;;;;;;;;;;5068276;28;20033;-59
2022/12/08 02:53:35;;;;;;;49.97;23.27;;;;;;;;;;5073470;28;20041;-60
2022/12/08 02:56:48;;;;;;;40.58;20.10;;;;;;;;;;5079663;28;20136;-61
2022/12/08 02:59:29;;;;;;;45.72;23.42;;;;;;;;;;5058250;28;20452;-61
2022/12/08 03:02:28;;;;;;;50.55;23.40;;;;;;;;;;5071358;28;20028;-61
2022/12/08 03:05:22;;;;;;;47.05;22.15;;;;;;;;;;5072352;28;20111;-60
2022/12/08 03:08:03;;;;;;;45.95;23.05;;;;;;;;;;5070505;28;20036;-62
2022/12/08 03:10:44;;;;;;;41.90;20.98;;;;;;;;;;5054636;28;20426;-61
2022/12/08 03:13:15;;;;;;;43.90;22.98;;;;;;;;;;5071614;28;20029;-60
2022/12/08 03:15:44;;;;;;;44.90;22.27;;;;;;;;;;5072312;28;20025;-61
2022/12/08 03:18:13;;;;;;;47.55;23.63;;;;;;;;;;5072141;28;20392;-61
2022/12/08 03:20:40;;;;;;;53.78;24.27;;;;;;;;;;5060301;28;20035;-61
2022/12/08 03:23:09;;;;;;;52.60;23.95;;;;;;;;;;5068444;28;20031;-61
2022/12/08 03:25:45;;;;;;;54.72;24.52;;;;;;;;;;5063795;28;20029;-61
2022/12/08 03:28:11;;;;;;;54.35;24.45;;;;;;;;;;5072320;28;20052;-61
2022/12/08 03:30:40;;;;;;;43.50;19.55;;;;;;;;;;5072467;28;20040;-61
2022/12/08 03:33:23;;;;;;;48.20;21.70;;;;;;;;;;5070566;28;20059;-59
2022/12/08 03:35:49;;;;;;;50.63;22.80;;;;;;;;;;5072896;28;20040;-60
2022/12/08 03:38:16;;;;;;;51.85;23.05;;;;;;;;;;5073308;28;20066;-60
2022/12/08 03:40:42;;;;;;;55.15;25.85;;;;;;;;;;5072188;28;20044;-61
2022/12/08 03:43:08;;;;;;;45.00;21.30;;;;;;;;;;5070852;28;20095;-61
2022/12/08 03:45:34;;;;;;;52.15;24.90;;;;;;;;;;5070302;28;20449;-61
2022/12/08 03:47:59;;;;;;;54.17;23.60;;;;;;;;;;5072338;28;20056;-60
2022/12/08 03:50:25;;;;;;;55.10;24.90;;;;;;;;;;5070805;28;20056;-61
2022/12/08 03:52:50;;;;;;;57.65;25.25;;;;;;;;;;5071287;28;20408;-61
2022/12/08 03:55:16;;;;;;;52.30;23.52;;;;;;;;;;5069471;28;20036;-62
2022/12/08 03:57:42;;;;;;;50.83;23.48;;;;;;;;;;5069616;28;20107;-64
2022/12/08 04:00:12;;;;;;;52.25;22.20;;;;;;;;;;5066338;28;20044;-63
2022/12/08 04:02:37;;;;;;;39.10;18.30;;;;;;;;;;5069436;28;20366;-61
2022/12/08 04:05:03;;;;;;;50.80;21.02;;;;;;;;;;5070296;28;20413;-61
2022/12/08 04:07:28;;;;;;;50.78;22.38;;;;;;;;;;5068903;28;20040;-61
2022/12/08 04:09:54;;;;;;;54.58;23.35;;;;;;;;;;5071030;28;20483;-61
2022/12/08 04:12:19;;;;;;;50.72;22.20;;;;;;;;;;5067706;28;20503;-61
2022/12/08 04:14:44;;;;;;;50.63;21.52;;;;;;;;;;5070564;28;20064;-61
2022/12/08 04:17:10;;;;;;;38.45;17.98;;;;;;;;;;5071478;28;20033;-61
2022/12/08 04:19:35;;;;;;;46.67;20.55;;;;;;;;;;5071610;28;20396;-61
2022/12/08 04:22:01;;;;;;;37.03;16.00;;;;;;;;;;5070555;28;20064;-61
2022/12/08 04:24:26;;;;;;;56.13;24.77;;;;;;;;;;5070421;28;20060;-61
2022/12/08 04:26:51;;;;;;;46.08;20.23;;;;;;;;;;5069710;28;20061;-60
2022/12/08 04:29:17;;;;;;;52.20;21.35;;;;;;;;;;5067502;28;20578;-61
2022/12/08 04:31:43;;;;;;;50.50;20.50;;;;;;;;;;5071088;28;20036;-61
2022/12/08 04:34:08;;;;;;;48.67;19.05;;;;;;;;;;5070587;28;20472;-61
2022/12/08 04:36:34;;;;;;;40.47;18.17;;;;;;;;;;5070535;28;20054;-61
2022/12/08 04:38:59;;;;;;;45.35;18.08;;;;;;;;;;5053542;28;20104;-61
2022/12/08 04:41:25;;;;;;;45.78;18.05;;;;;;;;;;5046065;28;20056;-61
2022/12/08 04:43:50;;;;;;;56.58;22.48;;;;;;;;;;5069624;28;20118;-61
2022/12/08 04:46:16;;;;;;;36.25;17.50;;;;;;;;;;5071078;28;20029;-61
2022/12/08 04:48:41;;;;;;;65.78;23.60;;;;;;;;;;5070984;28;20086;-61
2022/12/08 04:51:14;;;;;;;35.30;15.15;;;;;;;;;;5069121;28;20086;-61
2022/12/08 04:53:40;;;;;;;48.30;19.75;;;;;;;;;;5069057;28;20098;-60
2022/12/08 04:56:10;;;;;;;66.13;24.10;;;;;;;;;;5046529;28;20049;-61
2022/12/08 04:58:36;;;;;;;52.65;20.50;;;;;;;;;;5051012;28;20037;-60
2022/12/08 05:01:02;;;;;;;66.00;24.63;;;;;;;;;;5048829;28;20036;-60
2022/12/08 05:03:27;;;;;;;53.00;21.35;;;;;;;;;;5050022;28;20033;-60
2022/12/08 05:05:53;;;;;;;50.88;21.60;;;;;;;;;;5048592;28;20090;-61
2022/12/08 05:08:18;;;;;;;53.58;23.63;;;;;;;;;;5051522;28;20398;-61
2022/12/08 05:10:43;;;;;;;64.07;23.58;;;;;;;;;;5041503;28;20060;-61
2022/12/08 05:13:09;;;;;;;48.70;19.15;;;;;;;;;;5045259;28;20052;-60
2022/12/08 05:15:34;;;;;;;57.95;22.35;;;;;;;;;;5049919;28;20362;-59
2022/12/08 05:17:59;;;;;;;50.08;21.20;;;;;;;;;;5050195;28;20036;-61
2022/12/08 05:20:25;;;;;;;58.85;22.98;;;;;;;;;;5041994;28;20021;-60
2022/12/08 05:22:50;;;;;;;59.97;23.00;;;;;;;;;;5048321;28;20029;-60
2022/12/08 05:25:16;;;;;;;53.25;21.65;;;;;;;;;;5047543;28;20033;-60
2022/12/08 05:27:41;;;;;;;50.83;19.98;;;;;;;;;;5051630;28;20041;-59
2022/12/08 05:30:07;;;;;;;41.55;18.45;;;;;;;;;;5049284;28;20155;-60
2022/12/08 05:32:32;;;;;;;55.30;22.13;;;;;;;;;;5051571;28;20112;-60
2022/12/08 05:34:58;;;;;;;52.50;21.05;;;;;;;;;;5048780;28;20473;-59
2022/12/08 05:37:23;;;;;;;40.53;16.75;;;;;;;;;;5051662;28;20021;-60
2022/12/08 05:39:49;;;;;;;55.08;21.55;;;;;;;;;;5049065;28;20033;-61
2022/12/08 05:42:14;;;;;;;43.20;16.38;;;;;;;;;;5049970;28;20108;-60
2022/12/08 05:44:40;;;;;;;52.08;20.95;;;;;;;;;;5050537;28;20127;-59
2022/12/08 05:47:05;;;;;;;57.70;20.95;;;;;;;;;;5051096;28;20086;-58
2022/12/08 05:49:30;;;;;;;44.13;19.52;;;;;;;;;;5050272;28;20034;-61
2022/12/08 05:51:56;;;;;;;28.75;13.43;;;;;;;;;;5050660;28;20032;-61
2022/12/08 05:54:21;;;;;;;38.95;17.77;;;;;;;;;;5051415;28;20108;-58
2022/12/08 05:56:47;;;;;;;37.65;16.60;;;;;;;;;;5064640;28;20385;-62
2022/12/08 05:59:13;;;;;;;39.78;17.63;;;;;;;;;;5070429;28;20063;-58
2022/12/08 06:01:38;;;;;;;28.55;13.15;;;;;;;;;;5070917;28;20067;-61
2022/12/08 06:04:04;;;;;;;36.00;15.35;;;;;;;;;;5070918;28;20130;-61
2022/12/08 06:06:30;;;;;;;45.38;20.70;;;;;;;;;;5070424;28;20063;-59
2022/12/08 06:08:56;;;;;;;38.85;16.80;;;;;;;;;;5082712;28;20031;-60
2022/12/08 06:11:24;;;;;;;38.22;18.88;;;;;;;;;;5051677;28;20116;-58
2022/12/08 06:13:50;;;;;;;42.42;19.55;;;;;;;;;;5071249;28;20071;-63
2022/12/08 06:16:17;;;;;;;41.13;19.48;;;;;;;;;;5070249;28;20037;-61
2022/12/08 06:18:43;;;;;;;34.03;15.40;;;;;;;;;;5071358;28;20036;-59
2022/12/08 06:21:10;;;;;;;42.42;19.83;;;;;;;;;;5052950;28;20040;-57
2022/12/08 06:23:36;;;;;;;29.98;15.45;;;;;;;;;;5070047;28;20031;-55
2022/12/08 06:26:04;;;;;;;34.28;16.88;;;;;;;;;;5072662;28;20033;-58
2022/12/08 06:28:30;;;;;;;31.08;14.77;;;;;;;;;;5052232;28;20110;-56
2022/12/08 06:30:56;;;;;;;33.60;16.67;;;;;;;;;;5059831;28;20159;-59
2022/12/08 06:33:22;;;;;;;29.85;15.10;;;;;;;;;;5071785;28;20115;-63
2022/12/08 06:35:48;;;;;;;23.13;12.20;;;;;;;;;;5072627;28;20036;-62
2022/12/08 06:38:13;;;;;;;34.20;16.00;;;;;;;;;;5056093;28;20128;-62
2022/12/08 06:40:38;;;;;;;15.45;8.57;;;;;;;;;;5074647;28;20039;-61
2022/12/08 06:43:04;;;;;;;19.23;10.00;;;;;;;;;;5072556;28;20081;-61
2022/12/08 06:45:29;;;;;;;17.80;9.20;;;;;;;;;;5083377;28;20051;-61
2022/12/08 06:47:55;;;;;;;11.43;6.35;;;;;;;;;;5077293;28;20480;-61
2022/12/08 06:50:20;;;;;;;18.60;9.57;;;;;;;;;;5072993;28;20469;-59
2022/12/08 06:52:46;;;;;;;20.45;10.00;;;;;;;;;;5073499;28;20032;-61
2022/12/08 06:55:11;;;;;;;19.63;9.20;;;;;;;;;;5069554;28;20124;-60
2022/12/08 06:57:36;;;;;;;16.20;8.52;;;;;;;;;;5074514;28;20033;-62
2022/12/08 07:00:04;;;;;;;23.55;11.60;;;;;;;;;;5066453;28;20025;-61
2022/12/08 07:02:29;;;;;;;14.80;7.07;;;;;;;;;;5066748;28;20542;-62
2022/12/08 07:04:54;;;;;;;21.85;10.27;;;;;;;;;;5070812;28;20032;-62
2022/12/08 07:07:20;;;;;;;20.42;9.70;;;;;;;;;;5055685;28;20475;-60
2022/12/08 07:09:45;;;;;;;20.08;9.10;;;;;;;;;;5068836;28;20028;-62
2022/12/08 07:12:11;;;;;;;18.85;10.02;;;;;;;;;;5055089;28;20024;-60
2022/12/08 07:14:36;;;;;;;18.58;8.95;;;;;;;;;;5072786;28;20096;-58
2022/12/08 07:17:02;;;;;;;24.83;11.75;;;;;;;;;;5070993;28;20519;-61
2022/12/08 07:19:27;;;;;;;28.60;13.95;;;;;;;;;;5073251;28;20039;-61
2022/12/08 07:21:52;;;;;;;25.10;13.27;;;;;;;;;;5073184;28;20040;-61
2022/12/08 07:24:18;;;;;;;32.40;15.15;;;;;;;;;;5072071;28;20159;-62
2022/12/08 07:26:43;;;;;;;28.33;14.90;;;;;;;;;;5073800;28;20024;-61
2022/12/08 07:29:09;;;;;;;31.65;14.85;;;;;;;;;;5072057;28;20036;-63
2022/12/08 07:31:35;;;;;;;30.83;15.23;;;;;;;;;;5069230;28;20047;-61
2022/12/08 07:34:00;;;;;;;29.90;15.20;;;;;;;;;;5071427;28;20033;-61
2022/12/08 07:36:26;;;;;;;31.95;15.75;;;;;;;;;;5072275;28;20484;-60
2022/12/08 07:38:55;;;;;;;27.05;12.13;;;;;;;;;;5073388;28;20468;-63
2022/12/08 07:41:23;;;;;;;17.20;9.50;;;;;;;;;;5072350;28;20123;-63
2022/12/08 07:43:49;;;;;;;27.02;13.63;;;;;;;;;;5073487;28;20059;-62
2022/12/08 07:46:17;;;;;;;22.38;11.52;;;;;;;;;;5063248;28;20504;-61
2022/12/08 07:48:42;;;;;;;25.77;12.93;;;;;;;;;;5071440;28;20501;-62
2022/12/08 07:51:10;;;;;;;20.83;11.55;;;;;;;;;;5054528;28;20111;-61
2022/12/08 07:53:38;;;;;;;13.80;7.25;;;;;;;;;;5068827;28;20028;-62
2022/12/08 07:56:08;;;;;;;19.58;9.98;;;;;;;;;;5069734;28;20455;-61
2022/12/08 07:58:33;;;;;;;22.10;10.77;;;;;;;;;;5073073;28;20036;-62
2022/12/08 08:00:59;;;;;;;22.02;9.63;;;;;;;;;;5071611;28;20090;-62
2022/12/08 08:03:24;;;;;;;21.52;11.20;;;;;;;;;;5055765;28;20029;-61
2022/12/08 08:05:50;;;;;;;20.30;9.80;;;;;;;;;;5078069;28;20396;-61
2022/12/08 08:08:16;;;;;;;23.55;10.63;;;;;;;;;;5071602;28;20040;-61
2022/12/08 08:10:41;;;;;;;13.80;6.97;;;;;;;;;;5072010;28;20040;-61
2022/12/08 08:13:07;;;;;;;25.05;11.50;;;;;;;;;;5071902;28;20085;-61
2022/12/08 08:15:33;;;;;;;17.70;8.27;;;;;;;;;;5071697;28;20036;-63
2022/12/08 08:17:58;;;;;;;11.80;6.75;;;;;;;;;;5072017;28;20036;-62
2022/12/08 08:20:23;;;;;;;20.60;9.75;;;;;;;;;;5071727;28;20021;-60
2022/12/08 08:22:50;;;;;;;19.67;9.60;;;;;;;;;;5072255;28;20144;-60
2022/12/08 08:25:16;;;;;;;23.25;10.95;;;;;;;;;;5070284;28;20183;-59
2022/12/08 08:27:42;;;;;;;20.60;9.43;;;;;;;;;;5070502;28;20041;-61
2022/12/08 08:30:09;;;;;;;30.15;14.95;;;;;;;;;;5070757;28;20024;-62
2022/12/08 08:32:36;;;;;;;22.98;11.65;;;;;;;;;;5054505;28;20111;-61
2022/12/08 08:35:02;;;;;;;22.10;11.68;;;;;;;;;;5069655;28;20051;-61
2022/12/08 08:37:27;;;;;;;17.88;9.38;;;;;;;;;;5072527;28;20028;-61
2022/12/08 08:39:53;;;;;;;23.52;11.52;;;;;;;;;;5071219;28;20031;-61
2022/12/08 08:42:18;;;;;;;18.70;9.80;;;;;;;;;;5071382;28;20028;-61
2022/12/08 08:44:44;;;;;;;21.35;11.00;;;;;;;;;;5071203;28;20029;-61
2022/12/08 08:47:09;;;;;;;24.85;12.32;;;;;;;;;;5071561;28;20032;-61
2022/12/08 08:49:34;;;;;;;20.73;10.45;;;;;;;;;;5068184;28;20028;-60
2022/12/08 08:52:00;;;;;;;24.25;13.25;;;;;;;;;;5068494;28;20040;-61
2022/12/08 08:54:27;;;;;;;23.35;12.52;;;;;;;;;;5071727;28;20064;-62
2022/12/08 08:56:53;;;;;;;25.25;12.70;;;;;;;;;;5069838;28;20056;-60
2022/12/08 08:59:18;;;;;;;22.05;12.88;;;;;;;;;;5053433;28;20033;-61
2022/12/08 09:01:44;;;;;;;15.45;7.97;;;;;;;;;;5071782;28;20032;-61
2022/12/08 09:04:10;;;;;;;19.30;10.57;;;;;;;;;;5065231;28;20537;-61
2022/12/08 09:06:35;;;;;;;18.25;10.07;;;;;;;;;;5070891;28;20032;-61
2022/12/08 09:09:00;;;;;;;14.55;7.82;;;;;;;;;;5070082;28;20097;-62
2022/12/08 09:11:26;;;;;;;25.45;12.63;;;;;;;;;;5071669;28;20366;-61
2022/12/08 09:13:52;;;;;;;21.05;11.07;;;;;;;;;;5053645;28;20044;-60
2022/12/08 09:16:18;;;;;;;18.92;11.40;;;;;;;;;;5069864;28;20180;-63
2022/12/08 09:18:44;;;;;;;24.85;13.05;;;;;;;;;;5071748;28;20492;-62
2022/12/08 09:21:13;;;;;;;30.60;15.55;;;;;;;;;;5069349;28;20035;-60
2022/12/08 09:23:39;;;;;;;30.17;15.07;;;;;;;;;;5070413;28;20035;-61
2022/12/08 09:26:05;;;;;;;33.40;15.70;;;;;;;;;;5064750;28;20040;-62
2022/12/08 09:28:31;;;;;;;32.35;16.60;;;;;;;;;;5071464;28;20036;-61
2022/12/08 09:30:57;;;;;;;28.85;15.40;;;;;;;;;;5036227;28;20028;-63
2022/12/08 09:33:22;;;;;;;27.17;12.70;;;;;;;;;;5070795;28;20491;-61
2022/12/08 09:35:47;;;;;;;28.42;14.88;;;;;;;;;;5066147;28;20129;-61
2022/12/08 09:38:13;;;;;;;18.75;9.77;;;;;;;;;;5068542;28;20025;-60
2022/12/08 09:40:51;;;;;;;21.35;12.40;;;;;;;;;;5071278;28;20514;-61
2022/12/08 09:43:35;;;;;;;25.67;12.68;;;;;;;;;;5068772;28;20181;-59
2022/12/08 09:46:07;;;;;;;24.33;13.75;;;;;;;;;;5070670;28;20030;-62
2022/12/08 09:48:38;;;;;;;24.77;13.98;;;;;;;;;;5069054;28;20044;-61
2022/12/08 09:51:04;;;;;;;18.77;10.98;;;;;;;;;;5069003;28;20033;-61
2022/12/08 09:53:38;;;;;;;24.58;13.57;;;;;;;;;;5071273;28;20115;-61
2022/12/08 09:56:12;;;;;;;21.17;11.27;;;;;;;;;;5045579;28;20068;-61
2022/12/08 09:59:00;;;;;;;24.90;14.13;;;;;;;;;;5051351;28;20037;-61
2022/12/08 10:01:31;;;;;;;18.40;9.48;;;;;;;;;;5041014;28;20037;-62
2022/12/08 10:03:58;;;;;;;20.10;11.77;;;;;;;;;;5051996;28;20151;-62
2022/12/08 10:06:32;;;;;;;17.92;9.85;;;;;;;;;;5053065;28;20086;-62
2022/12/08 10:09:19;;;;;;;19.58;10.27;;;;;;;;;;5052381;28;20051;-63
2022/12/08 10:12:01;;;;;;;19.15;8.55;;;;;;;;;;5052968;28;20097;-61
2022/12/08 10:14:45;;;;;;;21.10;12.02;;;;;;;;;;5054102;28;20025;-61
2022/12/08 10:17:17;;;;;;;20.40;11.13;;;;;;;;;;5054475;28;20033;-61
2022/12/08 10:19:44;;;;;;;16.45;8.95;;;;;;;;;;5053377;28;20072;-61
2022/12/08 10:22:33;;;;;;;18.23;9.23;;;;;;;;;;5051403;28;21612;-62
2022/12/08 10:25:15;;;;;;;18.42;10.82;;;;;;;;;;5052237;28;20036;-63
2022/12/08 10:27:41;;;;;;;15.02;8.52;;;;;;;;;;5054780;28;20104;-61
2022/12/08 10:30:12;;;;;;;21.35;11.05;;;;;;;;;;5051022;28;20120;-62
2022/12/08 10:32:38;;;;;;;26.90;12.40;;;;;;;;;;5053733;28;20068;-61
2022/12/08 10:35:10;;;;;;;27.00;14.55;;;;;;;;;;5052163;28;20037;-62
2022/12/08 10:37:36;;;;;;;25.55;13.95;;;;;;;;;;5054867;28;20029;-61
2022/12/08 10:40:04;;;;;;;29.30;14.85;;;;;;;;;;5053482;28;20087;-63
2022/12/08 10:42:41;;;;;;;23.63;13.00;;;;;;;;;;5054264;28;20037;-62
2022/12/08 10:45:33;;;;;;;22.23;11.10;;;;;;;;;;5052265;28;20051;-62
2022/12/08 10:48:05;;;;;;;25.45;12.80;;;;;;;;;;5048586;28;20128;-61
2022/12/08 10:50:31;;;;;;;30.30;14.55;;;;;;;;;;5051390;28;20116;-62
2022/12/08 10:53:00;;;;;;;14.40;8.25;;;;;;;;;;5054618;28;20107;-62
2022/12/08 10:55:28;;;;;;;27.45;14.65;;;;;;;;;;5057463;28;20041;-62
2022/12/08 10:57:53;;;;;;;26.17;13.57;;;;;;;;;;5071326;28;20021;-62
2022/12/08 11:00:22;;;;;;;22.50;12.98;;;;;;;;;;5053657;28;20032;-62
2022/12/08 11:02:59;;;;;;;21.70;11.45;;;;;;;;;;5072268;28;20082;-62
2022/12/08 11:05:32;;;;;;;18.05;9.15;;;;;;;;;;5069816;28;20040;-61
2022/12/08 11:07:57;;;;;;;20.73;10.15;;;;;;;;;;5036345;28;20032;-63
2022/12/08 11:10:32;;;;;;;18.55;9.27;;;;;;;;;;5071931;28;20036;-63
2022/12/08 11:13:04;;;;;;;18.23;9.65;;;;;;;;;;5070891;28;20036;-64
2022/12/08 11:15:35;;;;;;;10.80;6.53;;;;;;;;;;5053304;28;20044;-63
2022/12/08 11:18:08;;;;;;;15.23;7.97;;;;;;;;;;5053718;28;20056;-63
2022/12/08 11:20:39;;;;;;;21.05;10.70;;;;;;;;;;5072487;28;20469;-61
2022/12/08 11:23:19;;;;;;;17.15;9.10;;;;;;;;;;5071032;28;20032;-63
2022/12/08 11:25:44;;;;;;;19.13;9.77;;;;;;;;;;5071863;28;20032;-61
2022/12/08 11:28:10;;;;;;;19.05;9.48;;;;;;;;;;5068277;28;20029;-62
2022/12/08 11:30:46;;;;;;;16.42;9.60;;;;;;;;;;5072503;28;20032;-62
2022/12/08 11:33:23;;;;;;;19.92;10.15;;;;;;;;;;5071325;28;20115;-62
2022/12/08 11:35:54;;;;;;;18.55;10.05;;;;;;;;;;5071817;28;20135;-61
2022/12/08 11:38:22;;;;;;;20.10;10.15;;;;;;;;;;5052450;28;20365;-62
2022/12/08 11:40:59;;;;;;;17.63;10.32;;;;;;;;;;5072523;28;20464;-61
2022/12/08 11:43:33;;;;;;;17.02;8.75;;;;;;;;;;5071471;28;20645;-62
2022/12/08 11:46:33;;;;;;;19.67;9.68;;;;;;;;;;5071171;28;20622;-62
2022/12/08 11:49:07;;;;;;;16.93;9.13;;;;;;;;;;5056931;28;20124;-61
2022/12/08 11:51:45;;;;;;;20.23;11.85;;;;;;;;;;5072624;28;20055;-61
2022/12/08 11:54:34;;;;;;;21.38;12.35;;;;;;;;;;5070111;28;20039;-61
2022/12/08 11:57:03;;;;;;;21.40;11.43;;;;;;;;;;5023762;28;1094972;-61
2022/12/08 11:59:44;;;;;;;21.77;12.43;;;;;;;;;;5072866;28;20036;-61
2022/12/08 12:02:27;;;;;;;;;;;;;;;;;;5069923;28;20028;-61
2022/12/08 12:05:27;;;;;;;22.55;12.70;;;;;;;;;;5053055;28;20281;-59
2022/12/08 12:08:36;;;;;;;22.98;13.15;;;;;;;;;;5067828;28;20395;-61
2022/12/08 12:14:40;;;;;;;24.52;12.43;;;;;;;;;;5080135;28;20072;-60
2022/12/08 12:17:29;;;;;;;19.27;10.23;;;;;;;;;;5053799;28;20033;-60
2022/12/08 12:20:01;;;;;;;18.75;10.52;;;;;;;;;;5077011;28;20036;-59
2022/12/08 12:22:32;;;;;;;16.92;9.90;;;;;;;;;;5073027;28;20032;-59
2022/12/08 12:24:57;;;;;;;20.42;11.30;;;;;;;;;;5070680;28;20111;-62
2022/12/08 12:27:37;;;;;;;16.45;10.02;;;;;;;;;;5070404;28;20544;-61
2022/12/08 12:30:08;;;;;;;15.15;8.73;;;;;;;;;;5070833;28;20028;-66
2022/12/08 12:32:57;;;;;;;16.60;9.20;;;;;;;;;;5052489;28;20029;-61
2022/12/08 12:35:35;;;;;;;17.45;10.25;;;;;;;;;;5060361;28;20041;-60
2022/12/08 12:41:11;;;;;;;22.20;13.63;;;;;;;;;;5069581;28;20090;-61
2022/12/08 12:43:37;;;;;;;24.85;14.65;;;;;;;;;;5067883;28;20033;-60
2022/12/08 12:46:21;;;;;;;24.58;14.95;;;;;;;;;;5070757;28;20039;-60
2022/12/08 12:48:46;;;;;;;26.85;16.58;;;;;;;;;;5071397;28;20025;-60
2022/12/08 12:51:37;;;;;;;29.60;16.40;;;;;;;;;;5051895;28;20059;-56
2022/12/08 12:54:23;;;;;;;28.95;17.23;;;;;;;;;;5071410;28;20075;-61
2022/12/08 12:57:15;;;;;;;30.15;16.65;;;;;;;;;;5070586;28;20037;-61
2022/12/08 12:59:52;;;;;;;29.48;16.70;;;;;;;;;;5068367;28;20036;-61
2022/12/08 13:02:21;;;;;;;27.92;16.02;;;;;;;;;;5049318;28;20059;-60
2022/12/08 13:05:07;;;;;;;31.20;17.63;;;;;;;;;;5069573;28;20453;-60
2022/12/08 13:07:45;;;;;;;34.63;17.73;;;;;;;;;;5068567;28;20119;-60
2022/12/08 13:10:24;;;;;;;34.22;17.65;;;;;;;;;;5071171;28;20103;-60
2022/12/08 13:13:04;;;;;;;35.13;17.35;;;;;;;;;;5070659;28;20548;-60
2022/12/08 13:15:38;;;;;;;35.60;17.13;;;;;;;;;;5069435;28;20042;-60
2022/12/08 13:18:25;;;;;;;36.40;17.63;;;;;;;;;;5069752;28;20436;-60
2022/12/08 13:21:15;;;;;;;36.60;17.60;;;;;;;;;;5069212;28;20390;-61
2022/12/08 13:24:01;;;;;;;38.00;18.38;;;;;;;;;;5069385;28;20067;-60
2022/12/08 13:26:26;;;;;;;35.30;16.63;;;;;;;;;;5069778;28;20047;-60
2022/12/08 13:28:58;;;;;;;35.97;18.77;;;;;;;;;;5068186;28;20028;-60
2022/12/08 13:31:39;;;;;;;39.53;19.92;;;;;;;;;;5070916;28;20052;-58
2022/12/08 13:34:10;;;;;;;37.78;19.23;;;;;;;;;;5064576;28;20036;-60
2022/12/08 13:36:41;;;;;;;37.92;18.58;;;;;;;;;;5068814;28;20033;-61
2022/12/08 13:39:24;;;;;;;37.80;19.50;;;;;;;;;;5068263;28;20039;-59
2022/12/08 13:42:02;;;;;;;36.67;19.75;;;;;;;;;;5068415;28;20048;-60
2022/12/08 13:44:51;;;;;;;38.15;19.63;;;;;;;;;;5069346;28;20366;-59
2022/12/08 13:47:28;;;;;;;39.05;19.02;;;;;;;;;;5069275;28;20048;-60
2022/12/08 13:50:04;;;;;;;38.45;20.35;;;;;;;;;;5071181;28;20059;-60
2022/12/08 13:52:37;;;;;;;35.55;18.33;;;;;;;;;;5068755;28;20263;-60
2022/12/08 13:55:05;;;;;;;34.25;18.73;;;;;;;;;;5071065;28;20029;-60
2022/12/08 13:57:35;;;;;;;34.92;18.48;;;;;;;;;;5069607;28;20108;-60
2022/12/08 14:00:07;;;;;;;36.63;18.60;;;;;;;;;;5067215;28;20040;-60
2022/12/08 14:02:35;;;;;;;35.97;18.55;;;;;;;;;;5069400;28;20043;-60
2022/12/08 14:05:02;;;;;;;32.28;17.52;;;;;;;;;;5070294;28;20024;-61
2022/12/08 14:07:28;;;;;;;30.60;16.58;;;;;;;;;;5061892;28;20039;-61
2022/12/08 14:09:54;;;;;;;34.78;16.55;;;;;;;;;;5051495;28;20037;-62
2022/12/08 14:12:23;;;;;;;33.13;16.42;;;;;;;;;;5069151;28;20037;-62
2022/12/08 14:14:51;;;;;;;28.35;14.85;;;;;;;;;;5066627;28;20041;-64
2022/12/08 14:17:19;;;;;;;32.72;15.57;;;;;;;;;;5063047;28;20055;-57
2022/12/08 14:19:54;;;;;;;28.17;13.20;;;;;;;;;;5053689;28;20058;-61
2022/12/08 14:22:19;;;;;;;23.40;13.65;;;;;;;;;;5050699;28;20060;-60
2022/12/08 14:24:53;;;;;;;27.92;14.40;;;;;;;;;;5070941;28;20421;-61
2022/12/08 14:27:24;;;;;;;25.85;13.20;;;;;;;;;;5054479;28;20535;-62
2022/12/08 14:29:52;;;;;;;30.27;14.52;;;;;;;;;;5070876;28;20056;-62
2022/12/08 14:32:33;;;;;;;29.42;13.93;;;;;;;;;;5068302;28;20041;-63
2022/12/08 14:35:11;;;;;;;29.90;13.98;;;;;;;;;;5046533;28;20124;-60
2022/12/08 14:37:40;;;;;;;21.95;11.40;;;;;;;;;;5069341;28;20123;-60
2022/12/08 14:40:18;;;;;;;19.02;9.35;;;;;;;;;;5069925;28;20032;-60
2022/12/08 14:43:09;;;;;;;16.23;8.18;;;;;;;;;;5062861;28;20036;-61
2022/12/08 14:45:37;;;;;;;16.38;8.48;;;;;;;;;;5066495;28;20036;-61
2022/12/08 14:48:25;;;;;;;15.13;7.85;;;;;;;;;;5071401;28;20490;-61
2022/12/08 14:51:02;;;;;;;12.68;6.60;;;;;;;;;;5073683;28;20052;-61